Time;durP1;ratioP1;P1;durP2;ratioP2;P2;SDS_P1;SDS_P2;PMS_P1;PMS_P2;Temp;Humidity;BMP_temperature;BMP_pressure;BME280_temperature;BME280_humidity;BME280_pressure;Samples;Min_cycle;Max_cycle;Signal;HPM_P1;HPM_P2
2021/08/18 00:01:21;;;;;;;7.30;4.45;;;14.20;99.90;;;;;;4988100;28;20595;-60
2021/08/18 00:03:47;;;;;;;7.70;5.22;;;14.10;99.90;;;;;;4981126;28;20040;-61
2021/08/18 00:06:14;;;;;;;8.70;5.30;;;14.10;99.90;;;;;;4993763;28;20396;-61
2021/08/18 00:08:41;;;;;;;9.52;5.07;;;14.10;99.90;;;;;;5022129;28;20044;-60
2021/08/18 00:11:07;;;;;;;6.57;5.00;;;14.10;99.90;;;;;;5001740;28;20046;-61
2021/08/18 00:13:33;;;;;;;7.53;5.82;;;14.20;99.90;;;;;;4997983;28;20068;-60
2021/08/18 00:15:59;;;;;;;7.95;5.03;;;14.20;99.90;;;;;;4997036;28;20047;-60
2021/08/18 00:18:25;;;;;;;8.45;5.38;;;14.20;99.90;;;;;;4992610;28;20047;-60
2021/08/18 00:20:51;;;;;;;6.45;5.28;;;14.30;99.90;;;;;;4989909;28;20102;-60
2021/08/18 00:23:16;;;;;;;7.53;5.43;;;14.30;99.90;;;;;;4994967;28;20420;-61
2021/08/18 00:25:42;;;;;;;7.38;5.55;;;14.30;99.90;;;;;;5004624;28;20043;-61
2021/08/18 00:28:07;;;;;;;9.68;5.35;;;14.40;99.90;;;;;;4998603;28;20578;-61
2021/08/18 00:30:33;;;;;;;8.85;5.38;;;14.40;99.90;;;;;;4995610;28;20092;-60
2021/08/18 00:32:59;;;;;;;8.73;5.20;;;14.40;99.90;;;;;;4996949;28;20388;-61
2021/08/18 00:35:25;;;;;;;7.65;4.85;;;14.40;99.90;;;;;;5003706;28;20117;-60
2021/08/18 00:37:50;;;;;;;7.93;5.60;;;14.30;99.90;;;;;;5001030;28;20034;-60
2021/08/18 00:40:16;;;;;;;7.05;5.43;;;14.30;99.90;;;;;;4977819;28;20054;-61
2021/08/18 00:42:44;;;;;;;7.25;5.47;;;14.30;99.90;;;;;;4999131;28;20035;-62
2021/08/18 00:45:10;;;;;;;6.28;4.88;;;14.20;99.90;;;;;;5005661;28;20518;-62
2021/08/18 00:47:55;;;;;;;8.60;5.22;;;14.20;99.90;;;;;;4980329;28;20479;-62
2021/08/18 00:50:27;;;;;;;6.13;4.57;;;14.20;99.90;;;;;;4999250;28;20062;-62
2021/08/18 00:52:54;;;;;;;7.50;5.32;;;14.20;99.90;;;;;;4992339;28;20031;-63
2021/08/18 00:55:21;;;;;;;11.13;5.50;;;14.20;99.90;;;;;;5009850;28;20057;-62
2021/08/18 00:57:47;;;;;;;7.00;4.78;;;14.20;99.90;;;;;;5010008;28;20042;-62
2021/08/18 01:00:16;;;;;;;15.35;6.13;;;14.20;99.90;;;;;;4998441;28;20107;-62
2021/08/18 01:02:46;;;;;;;7.85;5.28;;;14.30;99.90;;;;;;5023092;28;20028;-62
2021/08/18 01:05:26;;;;;;;6.50;4.75;;;14.30;99.90;;;;;;5000964;28;20110;-60
2021/08/18 01:07:55;;;;;;;5.82;4.57;;;14.40;99.90;;;;;;4991435;28;20042;-60
2021/08/18 01:10:33;;;;;;;8.75;4.60;;;14.40;99.90;;;;;;5010351;28;20049;-60
2021/08/18 01:12:59;;;;;;;6.80;4.93;;;14.40;99.90;;;;;;5002521;28;20038;-60
2021/08/18 01:15:27;;;;;;;7.40;5.00;;;14.50;99.90;;;;;;5006090;28;20038;-61
2021/08/18 01:17:56;;;;;;;7.75;5.43;;;14.50;99.90;;;;;;5027604;28;20058;-62
2021/08/18 01:20:29;;;;;;;6.85;5.55;;;14.60;99.90;;;;;;5023958;28;20038;-62
2021/08/18 01:22:55;;;;;;;7.40;5.28;;;14.50;99.90;;;;;;5014023;28;20034;-62
2021/08/18 01:25:21;;;;;;;6.13;5.20;;;14.60;99.90;;;;;;4999190;28;20080;-61
2021/08/18 01:27:51;;;;;;;9.55;4.95;;;14.60;99.90;;;;;;4995930;28;20046;-60
2021/08/18 01:30:19;;;;;;;7.28;5.13;;;14.60;99.90;;;;;;5029185;28;20034;-61
2021/08/18 01:32:57;;;;;;;7.43;5.32;;;14.60;99.90;;;;;;4991337;28;20077;-60
2021/08/18 01:35:33;;;;;;;6.63;5.30;;;14.70;99.90;;;;;;4997565;28;20125;-60
2021/08/18 01:38:00;;;;;;;7.05;4.97;;;14.60;99.90;;;;;;5004393;28;20524;-60
2021/08/18 01:40:27;;;;;;;8.32;5.10;;;14.60;99.90;;;;;;5012770;28;20050;-60
2021/08/18 01:42:53;;;;;;;7.38;5.05;;;14.60;99.90;;;;;;5011385;28;20068;-60
2021/08/18 01:45:31;;;;;;;6.85;4.57;;;14.60;99.90;;;;;;5023312;28;20065;-60
2021/08/18 01:47:58;;;;;;;7.90;4.90;;;14.60;99.90;;;;;;4995321;28;20038;-61
2021/08/18 01:50:25;;;;;;;6.35;4.30;;;14.60;99.90;;;;;;4997251;28;20048;-61
2021/08/18 01:52:54;;;;;;;5.47;4.25;;;14.60;99.90;;;;;;5001171;28;20072;-61
2021/08/18 01:55:21;;;;;;;6.38;4.55;;;14.50;99.90;;;;;;4993806;28;20575;-61
2021/08/18 01:57:46;;;;;;;5.20;3.90;;;14.50;99.90;;;;;;4995664;28;20042;-61
2021/08/18 02:00:15;;;;;;;8.50;4.53;;;14.40;99.90;;;;;;4996928;28;20056;-61
2021/08/18 02:02:40;;;;;;;6.22;4.20;;;14.30;99.90;;;;;;5008360;28;20063;-61
2021/08/18 02:05:10;;;;;;;6.53;4.97;;;14.30;99.90;;;;;;4999626;28;20499;-61
2021/08/18 02:07:36;;;;;;;7.97;4.40;;;14.20;99.90;;;;;;5067709;28;20103;-61
2021/08/18 02:10:13;;;;;;;7.88;4.93;;;14.10;99.90;;;;;;5001253;28;20534;-61
2021/08/18 02:12:40;;;;;;;5.75;4.28;;;14.10;99.90;;;;;;5005110;28;20095;-61
2021/08/18 02:15:12;;;;;;;8.13;4.70;;;14.10;99.90;;;;;;5001752;28;20048;-61
2021/08/18 02:17:38;;;;;;;9.82;4.30;;;14.10;99.90;;;;;;4992196;28;20054;-61
2021/08/18 02:20:07;;;;;;;6.88;5.15;;;14.10;99.90;;;;;;5009780;28;20040;-61
2021/08/18 02:22:32;;;;;;;7.68;4.97;;;14.10;99.90;;;;;;4988601;28;20096;-61
2021/08/18 02:24:58;;;;;;;7.97;4.75;;;14.20;99.90;;;;;;5015237;28;20042;-61
2021/08/18 02:27:24;;;;;;;8.38;4.85;;;14.20;99.90;;;;;;5015334;28;20037;-61
2021/08/18 02:29:49;;;;;;;9.32;5.45;;;14.20;99.90;;;;;;5001354;28;20038;-61
2021/08/18 02:32:15;;;;;;;7.43;4.90;;;14.20;99.90;;;;;;5032274;28;20038;-61
2021/08/18 02:34:41;;;;;;;7.07;4.78;;;14.10;99.90;;;;;;5017732;28;20048;-61
2021/08/18 02:37:07;;;;;;;7.72;4.93;;;14.20;99.90;;;;;;5007376;28;20046;-61
2021/08/18 02:39:32;;;;;;;6.43;5.07;;;14.20;99.90;;;;;;5001155;28;20114;-61
2021/08/18 02:41:58;;;;;;;7.32;5.75;;;14.20;99.90;;;;;;4998113;28;20105;-61
2021/08/18 02:44:24;;;;;;;12.35;5.47;;;14.20;99.90;;;;;;4980447;28;20038;-61
2021/08/18 02:46:49;;;;;;;7.78;5.20;;;14.20;99.90;;;;;;5003644;28;20107;-61
2021/08/18 02:49:17;;;;;;;7.00;5.38;;;14.20;99.90;;;;;;5004915;28;20052;-61
2021/08/18 02:51:44;;;;;;;6.85;5.30;;;14.30;99.90;;;;;;4978902;28;20042;-61
2021/08/18 02:54:10;;;;;;;7.28;5.10;;;14.30;99.90;;;;;;5036805;28;20035;-61
2021/08/18 02:56:36;;;;;;;9.75;5.18;;;14.30;99.90;;;;;;5019355;28;20376;-61
2021/08/18 02:59:01;;;;;;;7.15;4.90;;;14.40;99.90;;;;;;4989875;28;20520;-61
2021/08/18 03:01:27;;;;;;;7.40;5.00;;;14.40;99.90;;;;;;5002185;28;20046;-61
2021/08/18 03:03:53;;;;;;;7.10;4.63;;;14.40;99.90;;;;;;5025409;28;20040;-61
2021/08/18 03:06:18;;;;;;;7.60;5.15;;;14.40;99.90;;;;;;5001223;28;20095;-61
2021/08/18 03:08:44;;;;;;;7.30;5.40;;;14.50;99.90;;;;;;5000638;28;20446;-61
2021/08/18 03:11:10;;;;;;;8.75;5.45;;;14.50;99.90;;;;;;4996678;28;20043;-61
2021/08/18 03:13:36;;;;;;;7.60;5.60;;;14.50;99.90;;;;;;5041683;28;20044;-61
2021/08/18 03:16:01;;;;;;;7.75;5.88;;;14.50;99.90;;;;;;5021335;28;20057;-61
2021/08/18 03:18:29;;;;;;;9.40;5.22;;;14.60;99.90;;;;;;4990012;28;20058;-61
2021/08/18 03:20:55;;;;;;;9.88;5.00;;;14.60;99.90;;;;;;5019552;28;20539;-61
2021/08/18 03:23:21;;;;;;;8.88;5.22;;;14.60;99.90;;;;;;4988293;28;20118;-61
2021/08/18 03:25:47;;;;;;;6.63;5.22;;;14.60;99.90;;;;;;5023453;28;20130;-61
2021/08/18 03:28:12;;;;;;;7.95;5.32;;;14.70;99.90;;;;;;4994126;28;20031;-61
2021/08/18 03:30:39;;;;;;;11.38;5.45;;;14.70;99.90;;;;;;4993039;28;20095;-61
2021/08/18 03:33:04;;;;;;;11.68;5.82;;;14.70;99.90;;;;;;5023263;28;20121;-61
2021/08/18 03:35:30;;;;;;;6.70;4.82;;;14.70;99.90;;;;;;5005924;28;20125;-61
2021/08/18 03:37:56;;;;;;;10.27;4.97;;;14.70;99.90;;;;;;4999150;28;20042;-61
2021/08/18 03:40:21;;;;;;;7.97;5.47;;;14.80;99.90;;;;;;4995441;28;20071;-61
2021/08/18 03:42:47;;;;;;;9.27;5.75;;;14.80;99.90;;;;;;4990338;28;20042;-61
2021/08/18 03:45:13;;;;;;;11.00;5.88;;;14.80;99.90;;;;;;4975891;28;20042;-61
2021/08/18 03:47:39;;;;;;;9.63;5.35;;;14.80;99.90;;;;;;5051706;28;20028;-61
2021/08/18 03:50:06;;;;;;;11.75;5.53;;;14.80;99.90;;;;;;5050026;28;20034;-61
2021/08/18 03:52:32;;;;;;;10.15;5.45;;;14.80;99.90;;;;;;5002039;28;20399;-61
2021/08/18 03:54:58;;;;;;;9.70;5.88;;;14.80;99.90;;;;;;4991888;28;20049;-61
2021/08/18 03:57:24;;;;;;;7.03;5.15;;;14.80;99.90;;;;;;5004935;28;20066;-61
2021/08/18 03:59:50;;;;;;;7.32;5.03;;;14.80;99.90;;;;;;4997850;28;20447;-61
2021/08/18 04:02:16;;;;;;;12.07;5.18;;;14.80;99.90;;;;;;5006164;28;20050;-61
2021/08/18 04:04:42;;;;;;;6.35;4.30;;;14.80;99.90;;;;;;4996419;28;20049;-61
2021/08/18 04:07:08;;;;;;;7.53;4.90;;;14.80;99.90;;;;;;4997919;28;20063;-61
2021/08/18 04:09:34;;;;;;;8.43;4.72;;;14.80;99.90;;;;;;5012020;28;20044;-61
2021/08/18 04:12:00;;;;;;;7.25;4.90;;;14.80;99.90;;;;;;5008771;28;20040;-61
2021/08/18 04:14:25;;;;;;;8.63;4.55;;;14.80;99.90;;;;;;5012870;28;20028;-61
2021/08/18 04:16:51;;;;;;;5.10;4.45;;;14.70;99.90;;;;;;5049623;28;20084;-62
2021/08/18 04:19:17;;;;;;;8.07;4.65;;;14.70;99.90;;;;;;4996511;28;20048;-61
2021/08/18 04:21:43;;;;;;;7.75;4.88;;;14.70;99.90;;;;;;4992748;28;20034;-61
2021/08/18 04:24:08;;;;;;;6.57;4.40;;;14.70;99.90;;;;;;4996765;28;20099;-61
2021/08/18 04:26:34;;;;;;;6.15;4.22;;;14.70;99.90;;;;;;5007854;28;20547;-61
2021/08/18 04:29:00;;;;;;;6.13;4.45;;;14.70;99.90;;;;;;5002003;28;20478;-61
2021/08/18 04:31:27;;;;;;;8.23;4.57;;;14.70;99.90;;;;;;5002151;28;20068;-61
2021/08/18 04:33:53;;;;;;;8.75;5.13;;;14.70;99.90;;;;;;5000435;28;20124;-61
2021/08/18 04:36:19;;;;;;;7.32;4.90;;;14.70;99.90;;;;;;5021374;28;20121;-61
2021/08/18 04:38:45;;;;;;;7.68;5.18;;;14.70;99.90;;;;;;4988248;28;20043;-61
2021/08/18 04:41:11;;;;;;;9.52;4.85;;;14.80;99.90;;;;;;4989387;28;20037;-61
2021/08/18 04:43:37;;;;;;;9.07;4.78;;;14.80;99.90;;;;;;4990053;28;20116;-61
2021/08/18 04:46:02;;;;;;;7.40;4.82;;;14.80;99.90;;;;;;4992875;28;20088;-61
2021/08/18 04:48:28;;;;;;;8.95;5.00;;;14.80;99.90;;;;;;4998718;28;20040;-61
2021/08/18 04:50:54;;;;;;;10.20;5.30;;;14.80;99.90;;;;;;4989870;28;20426;-61
2021/08/18 04:53:20;;;;;;;6.13;4.60;;;14.80;99.90;;;;;;4989298;28;20045;-61
2021/08/18 04:55:46;;;;;;;9.90;5.00;;;14.90;99.90;;;;;;5009978;28;20042;-61
2021/08/18 04:58:11;;;;;;;8.75;5.00;;;14.90;99.90;;;;;;4993497;28;20035;-63
2021/08/18 05:00:41;;;;;;;10.32;5.07;;;14.90;99.90;;;;;;4990872;28;20042;-62
2021/08/18 05:03:13;;;;;;;7.43;4.87;;;14.90;99.90;;;;;;4977127;28;20053;-62
2021/08/18 05:05:40;;;;;;;7.82;4.95;;;15.00;99.90;;;;;;4986046;28;20103;-62
2021/08/18 05:08:08;;;;;;;10.52;5.45;;;15.00;99.90;;;;;;4975547;28;20038;-63
2021/08/18 05:10:35;;;;;;;8.15;5.38;;;15.00;99.90;;;;;;5002775;28;20038;-62
2021/08/18 05:13:01;;;;;;;8.85;5.18;;;15.00;99.90;;;;;;4975445;28;20407;-62
2021/08/18 05:15:27;;;;;;;8.88;4.90;;;15.00;99.90;;;;;;5004155;28;20034;-63
2021/08/18 05:17:53;;;;;;;8.25;5.40;;;15.10;99.90;;;;;;5009944;28;20755;-62
2021/08/18 05:20:19;;;;;;;8.65;5.50;;;15.10;99.90;;;;;;5006573;28;20032;-62
2021/08/18 05:22:48;;;;;;;9.52;5.10;;;15.10;99.90;;;;;;5004790;28;20546;-62
2021/08/18 05:25:15;;;;;;;9.25;5.47;;;15.20;99.90;;;;;;4996657;28;20138;-62
2021/08/18 05:27:44;;;;;;;8.77;5.72;;;15.20;99.90;;;;;;4988851;28;20046;-60
2021/08/18 05:30:19;;;;;;;10.23;5.28;;;15.30;99.90;;;;;;4991147;28;20053;-60
2021/08/18 05:32:47;;;;;;;9.00;5.07;;;15.30;99.90;;;;;;5016390;22;20444;-65
2021/08/18 05:35:14;;;;;;;9.18;5.53;;;15.40;99.90;;;;;;5044252;28;20176;-65
2021/08/18 05:37:41;;;;;;;10.35;5.53;;;15.50;99.90;;;;;;5026925;28;20049;-65
2021/08/18 05:40:08;;;;;;;9.05;5.20;;;15.60;99.90;;;;;;5023281;28;20112;-65
2021/08/18 05:42:35;;;;;;;7.18;4.70;;;15.60;99.90;;;;;;5016610;28;20493;-66
2021/08/18 05:45:01;;;;;;;6.93;4.50;;;15.70;99.90;;;;;;5007705;28;20030;-67
2021/08/18 05:47:28;;;;;;;8.77;4.68;;;15.80;99.90;;;;;;5017754;28;20103;-66
2021/08/18 05:49:54;;;;;;;6.97;4.63;;;15.90;99.90;;;;;;5019334;28;20046;-67
2021/08/18 05:52:20;;;;;;;6.78;4.75;;;16.00;99.90;;;;;;5014030;28;20739;-67
2021/08/18 05:54:45;;;;;;;6.90;4.30;;;16.30;99.90;;;;;;5008703;28;20121;-67
2021/08/18 05:57:11;;;;;;;6.80;4.25;;;16.30;99.90;;;;;;5039435;28;20138;-67
2021/08/18 05:59:37;;;;;;;5.95;3.95;;;16.40;99.90;;;;;;5023275;28;20707;-67
2021/08/18 06:02:03;;;;;;;5.05;3.90;;;16.40;99.90;;;;;;5007191;28;20041;-66
2021/08/18 06:04:28;;;;;;;5.88;4.00;;;16.50;99.90;;;;;;5009477;28;20112;-67
2021/08/18 06:06:54;;;;;;;6.45;3.67;;;16.50;99.90;;;;;;5008167;28;20038;-67
2021/08/18 06:09:20;;;;;;;7.72;3.58;;;16.50;99.90;;;;;;5086842;28;20044;-66
2021/08/18 06:11:46;;;;;;;4.28;3.45;;;16.50;99.90;;;;;;5026498;28;20037;-67
2021/08/18 06:14:12;;;;;;;6.30;3.67;;;16.50;99.90;;;;;;5009413;28;20038;-66
2021/08/18 06:16:38;;;;;;;5.25;3.15;;;16.50;99.90;;;;;;5008374;28;20034;-66
2021/08/18 06:19:04;;;;;;;3.88;2.97;;;16.50;99.90;;;;;;5020236;28;20042;-66
2021/08/18 06:21:29;;;;;;;4.95;3.00;;;16.50;99.90;;;;;;5024790;28;20055;-67
2021/08/18 06:24:03;;;;;;;3.47;2.75;;;16.50;99.90;;;;;;5021145;28;20095;-67
2021/08/18 06:26:28;;;;;;;4.13;2.72;;;16.50;99.90;;;;;;5012564;28;20054;-67
2021/08/18 06:28:54;;;;;;;3.20;2.60;;;16.50;99.90;;;;;;5029276;28;20129;-66
2021/08/18 06:31:20;;;;;;;3.88;2.60;;;16.40;99.90;;;;;;5017476;28;20046;-66
2021/08/18 06:33:47;;;;;;;4.18;2.88;;;16.40;99.90;;;;;;5021676;28;20052;-66
2021/08/18 06:36:13;;;;;;;3.88;2.65;;;16.40;99.90;;;;;;5009159;28;20034;-70
2021/08/18 06:38:38;;;;;;;2.85;2.08;;;16.40;99.90;;;;;;5026795;28;20473;-66
2021/08/18 06:41:04;;;;;;;3.25;2.53;;;16.40;99.90;;;;;;5027821;28;20526;-66
2021/08/18 06:43:30;;;;;;;2.65;2.30;;;16.50;99.90;;;;;;5008390;28;20040;-67
2021/08/18 06:45:55;;;;;;;2.25;1.90;;;16.50;99.90;;;;;;5021422;28;20042;-65
2021/08/18 06:48:21;;;;;;;2.30;1.90;;;16.50;99.90;;;;;;5024639;28;20049;-66
2021/08/18 06:50:46;;;;;;;4.97;2.30;;;16.60;99.90;;;;;;5006836;28;20091;-65
2021/08/18 06:53:12;;;;;;;3.10;2.40;;;16.60;99.90;;;;;;5023490;28;20457;-66
2021/08/18 06:55:38;;;;;;;3.08;2.10;;;16.70;99.90;;;;;;5003617;28;20426;-65
2021/08/18 06:58:03;;;;;;;3.78;2.30;;;16.70;99.90;;;;;;5012659;28;20039;-65
2021/08/18 07:00:29;;;;;;;5.03;2.30;;;16.70;99.90;;;;;;5008121;28;20034;-65
2021/08/18 07:02:54;;;;;;;2.78;2.20;;;16.70;99.90;;;;;;5008934;28;20091;-66
2021/08/18 07:05:21;;;;;;;4.43;2.67;;;16.70;99.90;;;;;;5009845;28;20050;-65
2021/08/18 07:07:47;;;;;;;7.38;2.67;;;16.80;99.90;;;;;;5037464;28;20046;-65
2021/08/18 07:10:15;;;;;;;4.38;2.55;;;16.70;99.90;;;;;;5018254;28;20046;-65
2021/08/18 07:12:40;;;;;;;2.45;2.10;;;16.70;99.90;;;;;;5013932;28;20041;-65
2021/08/18 07:15:07;;;;;;;2.88;2.38;;;16.80;99.90;;;;;;5014787;28;20103;-65
2021/08/18 07:17:33;;;;;;;5.05;2.90;;;16.70;99.90;;;;;;5025475;28;20050;-65
2021/08/18 07:19:59;;;;;;;4.20;2.53;;;16.80;99.90;;;;;;4994434;28;20066;-65
2021/08/18 07:22:26;;;;;;;3.45;2.40;;;16.80;99.90;;;;;;5006305;28;20083;-65
2021/08/18 07:24:51;;;;;;;6.13;2.60;;;16.80;99.90;;;;;;4995588;28;20125;-65
2021/08/18 07:27:19;;;;;;;4.10;2.35;;;16.90;99.90;;;;;;5004690;28;20108;-65
2021/08/18 07:29:44;;;;;;;2.67;2.28;;;17.00;99.90;;;;;;5008446;28;20045;-65
2021/08/18 07:32:10;;;;;;;3.47;2.78;;;17.00;99.90;;;;;;5026282;28;20053;-65
2021/08/18 07:34:36;;;;;;;3.33;2.58;;;17.10;99.90;;;;;;5057793;28;20034;-65
2021/08/18 07:37:02;;;;;;;3.97;2.30;;;17.10;99.90;;;;;;5043546;28;20466;-65
2021/08/18 07:39:27;;;;;;;4.03;2.80;;;17.20;99.90;;;;;;5109840;28;20042;-65
2021/08/18 07:41:53;;;;;;;3.67;2.10;;;17.20;99.90;;;;;;5091789;28;20036;-66
2021/08/18 07:44:19;;;;;;;4.45;2.50;;;17.20;99.90;;;;;;5056490;28;20034;-65
2021/08/18 07:46:46;;;;;;;3.97;2.80;;;17.30;99.90;;;;;;5013685;28;20455;-65
2021/08/18 07:49:12;;;;;;;3.13;2.45;;;17.30;99.90;;;;;;5038364;28;20111;-65
2021/08/18 07:51:38;;;;;;;4.32;2.60;;;17.30;99.90;;;;;;5020447;28;20040;-65
2021/08/18 07:54:04;;;;;;;4.95;2.58;;;17.40;99.90;;;;;;5092494;28;20391;-66
2021/08/18 07:56:32;;;;;;;3.88;2.53;;;17.40;99.90;;;;;;5082934;28;20046;-65
2021/08/18 07:58:58;;;;;;;4.63;2.50;;;17.50;99.90;;;;;;4994377;28;20107;-65
2021/08/18 08:01:24;;;;;;;2.70;2.40;;;17.50;99.90;;;;;;5042104;28;20522;-65
2021/08/18 08:03:50;;;;;;;3.20;2.30;;;17.60;99.90;;;;;;5019619;28;20117;-65
2021/08/18 08:06:16;;;;;;;3.08;2.30;;;17.60;99.90;;;;;;5037298;28;20043;-65
2021/08/18 08:08:41;;;;;;;5.30;2.83;;;17.70;99.90;;;;;;5035595;28;20067;-65
2021/08/18 08:11:07;;;;;;;4.05;2.28;;;17.70;99.90;;;;;;5034401;28;20048;-67
2021/08/18 08:13:32;;;;;;;4.78;2.50;;;17.80;99.90;;;;;;5034963;28;20033;-67
2021/08/18 08:15:59;;;;;;;4.22;2.42;;;17.80;99.90;;;;;;5034842;28;20042;-68
2021/08/18 08:18:24;;;;;;;2.85;2.28;;;17.90;99.90;;;;;;5067758;28;20358;-67
2021/08/18 08:20:50;;;;;;;3.67;2.30;;;17.90;99.90;;;;;;5029358;28;20089;-67
2021/08/18 08:23:16;;;;;;;5.93;3.00;;;18.10;99.90;;;;;;5013716;28;20034;-67
2021/08/18 08:25:41;;;;;;;5.93;2.85;;;18.10;99.90;;;;;;5037613;28;20036;-67
2021/08/18 08:28:07;;;;;;;5.75;2.90;;;18.20;99.90;;;;;;5014449;28;20040;-67
2021/08/18 08:30:34;;;;;;;3.33;2.30;;;18.20;99.90;;;;;;5017678;28;20042;-67
2021/08/18 08:33:00;;;;;;;4.57;2.15;;;18.30;99.90;;;;;;5046955;28;20434;-67
2021/08/18 08:35:26;;;;;;;5.93;2.72;;;18.40;99.90;;;;;;5022515;28;20057;-67
2021/08/18 08:37:51;;;;;;;6.05;3.15;;;18.50;99.90;;;;;;5007760;28;20034;-67
2021/08/18 08:40:17;;;;;;;5.45;2.80;;;18.80;99.90;;;;;;5032904;28;20039;-67
2021/08/18 08:42:43;;;;;;;3.08;2.45;;;18.90;99.90;;;;;;5051490;28;20424;-67
2021/08/18 08:45:10;;;;;;;5.03;2.83;;;18.90;99.90;;;;;;5011530;28;20136;-67
2021/08/18 08:47:37;;;;;;;3.70;2.70;;;19.10;99.90;;;;;;5021368;28;20404;-67
2021/08/18 08:50:04;;;;;;;3.88;2.47;;;19.20;99.90;;;;;;5011765;28;20123;-67
2021/08/18 08:52:30;;;;;;;5.40;3.03;;;19.30;99.90;;;;;;5018727;28;20478;-67
2021/08/18 08:54:56;;;;;;;3.58;2.45;;;19.30;99.90;;;;;;5035932;28;20114;-67
2021/08/18 08:57:22;;;;;;;5.72;2.60;;;19.30;99.90;;;;;;5013050;28;20113;-67
2021/08/18 08:59:47;;;;;;;3.28;2.35;;;19.30;99.90;;;;;;5077276;28;20548;-67
2021/08/18 09:02:13;;;;;;;6.13;2.70;;;19.10;99.90;;;;;;5054929;28;20038;-67
2021/08/18 09:04:41;;;;;;;5.75;2.85;;;19.10;99.90;;;;;;5017483;28;20042;-67
2021/08/18 09:07:11;;;;;;;3.35;2.78;;;19.00;99.90;;;;;;5006430;28;20071;-68
2021/08/18 09:09:39;;;;;;;4.88;2.55;;;19.00;99.90;;;;;;5012404;28;20049;-67
2021/08/18 09:12:11;;;;;;;3.90;2.33;;;19.00;99.90;;;;;;5016786;28;20049;-67
2021/08/18 09:14:37;;;;;;;5.00;2.35;;;19.10;99.90;;;;;;5042589;28;20024;-67
2021/08/18 09:17:27;;;;;;;3.63;2.55;;;19.30;99.90;;;;;;5107378;28;20047;-67
2021/08/18 09:20:11;;;;;;;3.90;2.63;;;19.50;99.90;;;;;;5080210;28;20044;-67
2021/08/18 09:22:49;;;;;;;2.92;2.33;;;19.50;99.90;;;;;;5007530;28;20179;-67
2021/08/18 09:25:41;;;;;;;3.38;2.58;;;19.50;99.90;;;;;;5009637;28;20094;-67
2021/08/18 09:28:06;;;;;;;7.18;2.80;;;19.60;99.90;;;;;;5012326;28;20648;-67
2021/08/18 09:30:46;;;;;;;3.03;2.75;;;19.60;99.90;;;;;;5009785;28;20079;-67
2021/08/18 09:33:16;;;;;;;5.82;2.80;;;19.60;99.90;;;;;;5020279;28;20091;-67
2021/08/18 09:35:44;;;;;;;5.55;2.97;;;19.80;99.90;;;;;;5114311;28;20121;-67
2021/08/18 09:38:14;;;;;;;4.90;2.97;;;19.70;99.90;;;;;;5049569;28;20045;-67
2021/08/18 09:40:45;;;;;;;2.80;2.58;;;19.80;99.90;;;;;;5010813;28;20042;-67
2021/08/18 09:43:24;;;;;;;4.55;3.10;;;19.90;99.90;;;;;;5016916;28;20038;-67
2021/08/18 09:46:04;;;;;;;4.03;2.83;;;20.00;99.90;;;;;;5010539;28;20057;-67
2021/08/18 09:48:34;;;;;;;6.10;2.78;;;20.20;99.90;;;;;;5043723;28;20115;-67
2021/08/18 09:51:05;;;;;;;5.53;2.88;;;20.40;99.90;;;;;;5114350;28;20077;-67
2021/08/18 09:53:35;;;;;;;3.97;2.80;;;20.60;99.90;;;;;;5075997;28;20034;-67
2021/08/18 09:56:06;;;;;;;3.75;2.72;;;20.70;99.90;;;;;;5069618;28;20092;-67
2021/08/18 09:58:33;;;;;;;4.68;2.92;;;20.90;99.90;;;;;;5040702;28;20121;-67
2021/08/18 10:01:10;;;;;;;4.13;3.00;;;21.00;99.90;;;;;;5009026;28;20060;-67
2021/08/18 10:03:38;;;;;;;3.70;3.00;;;21.10;99.90;;;;;;5031184;28;20434;-67
2021/08/18 10:06:06;;;;;;;4.55;2.70;;;21.10;99.90;;;;;;5008158;28;20073;-67
2021/08/18 10:08:33;;;;;;;4.75;3.45;;;21.00;99.90;;;;;;5009486;28;20038;-67
2021/08/18 10:10:59;;;;;;;5.53;3.30;;;20.90;99.90;;;;;;5008156;28;20030;-67
2021/08/18 10:13:25;;;;;;;3.75;3.42;;;20.70;99.90;;;;;;5033372;28;20512;-67
2021/08/18 10:15:52;;;;;;;3.47;2.80;;;20.50;99.90;;;;;;5017390;28;20080;-67
2021/08/18 10:18:27;;;;;;;5.47;3.40;;;20.40;99.90;;;;;;5043820;28;20046;-67
2021/08/18 10:20:56;;;;;;;4.05;3.28;;;20.30;99.90;;;;;;5012328;28;20045;-67
2021/08/18 10:23:40;;;;;;;5.15;3.30;;;20.30;99.90;;;;;;5012064;28;20046;-67
2021/08/18 10:26:06;;;;;;;6.85;3.80;;;20.20;99.90;;;;;;5011013;28;20116;-67
2021/08/18 10:29:19;;;;;;;4.28;3.40;;;20.10;99.90;;;;;;5077733;28;20113;-67
2021/08/18 10:31:45;;;;;;;5.25;3.92;;;20.10;99.90;;;;;;5070723;27;20063;-67
2021/08/18 10:34:32;;;;;;;5.07;3.80;;;20.00;99.90;;;;;;5039496;28;20385;-67
2021/08/18 10:37:02;;;;;;;6.63;3.97;;;20.00;99.90;;;;;;5010089;28;20041;-67
2021/08/18 10:39:36;;;;;;;4.95;3.88;;;20.00;99.90;;;;;;5009856;28;20094;-67
2021/08/18 10:42:10;;;;;;;5.88;4.10;;;20.00;99.90;;;;;;5013580;28;20037;-65
2021/08/18 10:44:40;;;;;;;4.18;3.65;;;20.00;99.90;;;;;;5009996;28;20052;-65
2021/08/18 10:47:28;;;;;;;4.43;3.90;;;20.00;99.90;;;;;;5009464;28;20036;-65
2021/08/18 10:49:54;;;;;;;6.32;4.50;;;20.10;99.90;;;;;;5027855;28;20061;-65
2021/08/18 10:52:29;;;;;;;4.13;3.75;;;20.20;99.90;;;;;;5012905;28;20043;-65
2021/08/18 10:55:01;;;;;;;4.68;3.45;;;20.20;99.90;;;;;;5047774;28;20041;-66
2021/08/18 10:57:35;;;;;;;;;;;20.40;99.90;;;;;;5012363;28;20034;-65
2021/08/18 11:00:20;;;;;;;4.10;3.70;;;20.40;99.90;;;;;;5015800;28;20019;-65
2021/08/18 11:03:00;;;;;;;5.07;3.72;;;20.50;99.90;;;;;;5029029;28;20034;-65
2021/08/18 11:05:41;;;;;;;5.55;3.70;;;20.40;99.90;;;;;;5002714;28;20034;-66
2021/08/18 11:08:26;;;;;;;5.43;3.80;;;20.30;99.90;;;;;;5028285;28;20527;-65
2021/08/18 11:10:52;;;;;;;4.70;3.45;;;20.10;99.90;;;;;;5010347;28;20486;-65
2021/08/18 11:13:36;;;;;;;3.65;3.00;;;20.20;99.90;;;;;;5016907;28;20048;-65
2021/08/18 11:16:25;;;;;;;3.38;3.05;;;20.20;99.90;;;;;;5071887;28;20144;-67
2021/08/18 11:18:59;;;;;;;3.97;3.05;;;20.40;99.90;;;;;;5021879;28;20552;-67
2021/08/18 11:21:30;;;;;;;3.60;2.85;;;20.40;99.90;;;;;;5010090;28;20447;-67
2021/08/18 11:24:05;;;;;;;3.53;2.70;;;20.50;99.90;;;;;;5043430;28;20030;-71
2021/08/18 11:26:36;;;;;;;7.22;2.97;;;20.70;99.90;;;;;;5020614;28;20067;-71
2021/08/18 11:29:10;;;;;;;4.32;3.00;;;20.60;99.90;;;;;;5040066;28;20415;-72
2021/08/18 11:31:37;;;;;;;4.00;3.28;;;20.50;99.90;;;;;;5018723;28;20049;-71
2021/08/18 11:34:04;;;;;;;3.55;2.92;;;20.50;99.90;;;;;;5059210;28;20096;-71
2021/08/18 11:36:35;;;;;;;4.50;3.17;;;20.50;99.90;;;;;;5033116;28;20061;-71
2021/08/18 11:39:05;;;;;;;3.83;2.88;;;20.50;99.90;;;;;;5030236;28;20829;-71
2021/08/18 11:41:42;;;;;;;3.22;2.83;;;20.70;99.90;;;;;;5016702;28;20121;-71
2021/08/18 11:44:28;;;;;;;3.88;3.00;;;20.90;99.90;;;;;;5007649;28;20348;-71
2021/08/18 11:47:03;;;;;;;4.47;3.08;;;21.10;99.90;;;;;;5006483;28;20045;-71
2021/08/18 11:49:29;;;;;;;4.65;3.92;;;21.30;99.90;;;;;;5011531;28;20734;-71
2021/08/18 11:51:55;;;;;;;4.75;3.90;;;21.40;99.90;;;;;;5007809;28;20061;-67
2021/08/18 11:54:22;;;;;;;4.63;3.25;;;21.50;99.90;;;;;;4996061;28;20054;-67
2021/08/18 11:56:58;;;;;;;5.97;3.35;;;21.60;99.90;;;;;;5005124;28;20370;-68
2021/08/18 11:59:23;;;;;;;4.85;3.58;;;21.70;99.90;;;;;;5010454;28;20065;-68
2021/08/18 12:01:52;;;;;;;4.18;3.60;;;21.60;99.90;;;;;;5057012;28;20482;-67
2021/08/18 12:04:20;;;;;;;4.30;3.55;;;21.60;99.50;;;;;;5006046;28;20495;-67
2021/08/18 12:06:47;;;;;;;4.35;3.33;;;21.40;99.90;;;;;;5089079;28;20490;-68
2021/08/18 12:09:22;;;;;;;3.92;3.53;;;21.40;99.90;;;;;;5032776;28;20041;-67
2021/08/18 12:11:48;;;;;;;4.55;3.03;;;21.30;99.90;;;;;;5014027;28;20363;-67
2021/08/18 12:14:17;;;;;;;4.00;3.10;;;21.30;99.90;;;;;;5056817;28;20074;-67
2021/08/18 12:16:44;;;;;;;3.50;2.80;;;21.30;99.90;;;;;;5078028;28;20035;-67
2021/08/18 12:19:18;;;;;;;3.35;3.05;;;21.30;99.90;;;;;;5008645;28;20042;-67
2021/08/18 12:21:46;;;;;;;4.88;2.47;;;21.30;99.90;;;;;;5033261;28;20090;-67
2021/08/18 12:24:15;;;;;;;2.28;2.05;;;21.40;99.90;;;;;;5023629;28;20034;-67
2021/08/18 12:26:46;;;;;;;3.05;1.70;;;21.40;99.90;;;;;;5030111;28;20044;-67
2021/08/18 12:29:17;;;;;;;3.50;1.50;;;21.40;99.90;;;;;;5026082;28;20033;-67
2021/08/18 12:32:01;;;;;;;1.80;1.50;;;21.30;99.90;;;;;;5026878;28;20044;-67
2021/08/18 12:34:47;;;;;;;2.47;1.27;;;21.30;99.90;;;;;;5013297;28;20065;-67
2021/08/18 12:37:22;;;;;;;2.55;1.52;;;21.30;99.80;;;;;;5011490;28;20046;-67
2021/08/18 12:40:01;;;;;;;3.20;1.63;;;21.20;99.50;;;;;;5007259;28;20049;-67
2021/08/18 12:42:29;;;;;;;1.70;1.40;;;21.20;99.60;;;;;;5015588;28;20113;-67
2021/08/18 12:45:11;;;;;;;2.90;1.50;;;21.30;99.60;;;;;;5022752;28;20094;-67
2021/08/18 12:47:41;;;;;;;2.78;1.75;;;21.30;99.80;;;;;;5014050;28;20033;-68
2021/08/18 12:50:11;;;;;;;1.75;1.30;;;21.20;99.90;;;;;;5013197;28;20061;-68
2021/08/18 12:52:37;;;;;;;1.60;1.50;;;21.40;99.20;;;;;;5029742;28;20034;-68